Savannah/Hunter AAF, Georgia
Current Conditions -  °F | °C
As of 11:03 AM on Monday 24 Nov 2014 (Local Time) from KSVN Reporting Station
Scattered Clouds Scattered Clouds  
Wind Chill: 75°   Ceiling: Unl
Heat Index: 75°   Visibility: 10mi
Dew Point: 72°   Wind: 7mph
Humidity: 89%   Direction: 190°S
Pressure: 29.88"   Gusts: NA
Location:  32.02°N, 81.15°W
Report Text: KSVN 241603Z AUTO 19006KT 10SM SCT017 SCT024 24/22 A2988 RMK AO2
Loading
Personal Weather Stations






























Interactive Weather Map New forecast layout! Learn more

10-Day Weather Forecast

Advertisements
Track Severe Weather on mobile